Lotniskowe dane METAR     ENHD Haugesund Airport, Karmøy
Temperatura
16°C Temperatura
15°C Punkt rosy
94% Wilgotność



Wiatr
3 M/S
6 MPH
10 KM/H
5 KTS



200°
SSW
Warunki bieżące

Lekkie Deszcz Lekkie Deszcz
Ciśnienie 1005.76 (hPa) - 29.7 (inHg)
Widoczność 6 (mil) - 9.7 (km)
Lotnisko
Kod lotniska ENHD

Położenie: Haugesund Airport, Karmøy
Odległość: 15 (km)

Metar:
ENHD 141850Z 20005KT 9999 -RA FEW002 SCT015CB BKN020 16/15 Q1006

Czas: 14-07-2024 20:50 CEST